sensor_id;sensor_type;location;lat;lon;timestamp;temperature;humidity
32749;DHT22;19119;52.474;13.710;2022-11-20T00:02:09;0.60;99.90
32749;DHT22;19119;52.474;13.710;2022-11-20T00:04:35;0.60;99.90
32749;DHT22;19119;52.474;13.710;2022-11-20T00:07:00;0.60;99.90
32749;DHT22;19119;52.474;13.710;2022-11-20T00:09:26;0.50;99.90
32749;DHT22;19119;52.474;13.710;2022-11-20T00:11:51;0.50;99.90
32749;DHT22;19119;52.474;13.710;2022-11-20T00:14:17;0.60;99.90
32749;DHT22;19119;52.474;13.710;2022-11-20T00:16:42;0.60;99.90
32749;DHT22;19119;52.474;13.710;2022-11-20T00:19:07;0.60;99.90
32749;DHT22;19119;52.474;13.710;2022-11-20T00:21:33;0.60;99.90
32749;DHT22;19119;52.474;13.710;2022-11-20T00:23:58;0.60;99.90
32749;DHT22;19119;52.474;13.710;2022-11-20T00:26:24;0.60;99.90
32749;DHT22;19119;52.474;13.710;2022-11-20T00:28:51;0.50;99.90
32749;DHT22;19119;52.474;13.710;2022-11-20T00:31:17;0.60;99.90
32749;DHT22;19119;52.474;13.710;2022-11-20T00:33:43;0.50;99.90
32749;DHT22;19119;52.474;13.710;2022-11-20T00:36:13;0.50;99.90
32749;DHT22;19119;52.474;13.710;2022-11-20T00:38:39;0.50;99.90
32749;DHT22;19119;52.474;13.710;2022-11-20T00:41:08;0.60;99.90
32749;DHT22;19119;52.474;13.710;2022-11-20T00:43:34;0.60;99.90
32749;DHT22;19119;52.474;13.710;2022-11-20T00:46:01;0.60;99.90
32749;DHT22;19119;52.474;13.710;2022-11-20T00:48:26;0.60;99.90
32749;DHT22;19119;52.474;13.710;2022-11-20T00:50:52;0.50;99.90
32749;DHT22;19119;52.474;13.710;2022-11-20T00:53:18;0.60;99.90
32749;DHT22;19119;52.474;13.710;2022-11-20T00:55:52;0.60;99.90
32749;DHT22;19119;52.474;13.710;2022-11-20T00:58:17;0.60;99.90
32749;DHT22;19119;52.474;13.710;2022-11-20T01:00:43;0.60;99.90
32749;DHT22;19119;52.474;13.710;2022-11-20T01:03:08;0.60;99.90
32749;DHT22;19119;52.474;13.710;2022-11-20T01:05:34;0.50;99.90
32749;DHT22;19119;52.474;13.710;2022-11-20T01:08:00;0.50;99.90
32749;DHT22;19119;52.474;13.710;2022-11-20T01:10:26;0.60;99.90
32749;DHT22;19119;52.474;13.710;2022-11-20T01:12:51;0.50;99.90
32749;DHT22;19119;52.474;13.710;2022-11-20T01:15:36;0.60;99.90
32749;DHT22;19119;52.474;13.710;2022-11-20T01:18:02;0.50;99.90
32749;DHT22;19119;52.474;13.710;2022-11-20T01:20:27;0.60;99.90
32749;DHT22;19119;52.474;13.710;2022-11-20T01:22:53;0.50;99.90
32749;DHT22;19119;52.474;13.710;2022-11-20T01:25:18;0.50;99.90
32749;DHT22;19119;52.474;13.710;2022-11-20T01:27:44;0.50;99.90
32749;DHT22;19119;52.474;13.710;2022-11-20T01:30:09;0.50;99.90
32749;DHT22;19119;52.474;13.710;2022-11-20T01:32:35;0.50;99.90
32749;DHT22;19119;52.474;13.710;2022-11-20T01:35:00;0.40;99.90
32749;DHT22;19119;52.474;13.710;2022-11-20T01:37:26;0.50;99.90
32749;DHT22;19119;52.474;13.710;2022-11-20T01:39:51;0.50;99.90
32749;DHT22;19119;52.474;13.710;2022-11-20T01:42:17;0.40;99.90
32749;DHT22;19119;52.474;13.710;2022-11-20T01:45:01;0.40;99.90
32749;DHT22;19119;52.474;13.710;2022-11-20T01:47:36;0.50;99.90
32749;DHT22;19119;52.474;13.710;2022-11-20T01:50:05;0.40;99.90
32749;DHT22;19119;52.474;13.710;2022-11-20T01:52:38;0.40;99.90
32749;DHT22;19119;52.474;13.710;2022-11-20T01:55:09;0.40;99.90
32749;DHT22;19119;52.474;13.710;2022-11-20T01:57:35;0.40;99.90
32749;DHT22;19119;52.474;13.710;2022-11-20T02:00:03;0.30;99.90
32749;DHT22;19119;52.474;13.710;2022-11-20T02:02:29;0.30;99.90
32749;DHT22;19119;52.474;13.710;2022-11-20T02:04:55;0.30;99.90
32749;DHT22;19119;52.474;13.710;2022-11-20T02:07:22;0.40;99.90
32749;DHT22;19119;52.474;13.710;2022-11-20T02:09:48;0.30;99.90
32749;DHT22;19119;52.474;13.710;2022-11-20T02:12:13;0.30;99.90
32749;DHT22;19119;52.474;13.710;2022-11-20T02:14:59;0.30;99.90
32749;DHT22;19119;52.474;13.710;2022-11-20T02:17:25;0.30;99.90
32749;DHT22;19119;52.474;13.710;2022-11-20T02:19:50;0.30;99.90
32749;DHT22;19119;52.474;13.710;2022-11-20T02:22:18;0.30;99.90
32749;DHT22;19119;52.474;13.710;2022-11-20T02:24:44;0.30;99.90
32749;DHT22;19119;52.474;13.710;2022-11-20T02:27:12;0.30;99.90
32749;DHT22;19119;52.474;13.710;2022-11-20T02:32:03;0.40;99.90
32749;DHT22;19119;52.474;13.710;2022-11-20T02:34:28;0.40;99.90
32749;DHT22;19119;52.474;13.710;2022-11-20T02:36:54;0.40;99.90
32749;DHT22;19119;52.474;13.710;2022-11-20T02:39:20;0.30;99.90
32749;DHT22;19119;52.474;13.710;2022-11-20T02:41:48;0.40;99.90
32749;DHT22;19119;52.474;13.710;2022-11-20T02:44:13;0.40;99.90
32749;DHT22;19119;52.474;13.710;2022-11-20T02:46:39;0.40;99.90
32749;DHT22;19119;52.474;13.710;2022-11-20T02:49:05;0.40;99.90
32749;DHT22;19119;52.474;13.710;2022-11-20T02:51:30;0.30;99.90
32749;DHT22;19119;52.474;13.710;2022-11-20T02:53:56;0.40;99.90
32749;DHT22;19119;52.474;13.710;2022-11-20T02:56:22;0.30;99.90
32749;DHT22;19119;52.474;13.710;2022-11-20T02:58:47;0.30;99.90
32749;DHT22;19119;52.474;13.710;2022-11-20T03:01:13;0.30;99.90
32749;DHT22;19119;52.474;13.710;2022-11-20T03:03:38;0.30;99.90
32749;DHT22;19119;52.474;13.710;2022-11-20T03:06:04;0.30;99.90
32749;DHT22;19119;52.474;13.710;2022-11-20T03:08:29;0.30;99.90
32749;DHT22;19119;52.474;13.710;2022-11-20T03:10:55;0.30;99.90
32749;DHT22;19119;52.474;13.710;2022-11-20T03:13:20;0.30;99.90
32749;DHT22;19119;52.474;13.710;2022-11-20T03:15:46;0.20;99.90
32749;DHT22;19119;52.474;13.710;2022-11-20T03:18:11;0.30;99.90
32749;DHT22;19119;52.474;13.710;2022-11-20T03:20:38;0.40;99.90
32749;DHT22;19119;52.474;13.710;2022-11-20T03:23:04;0.40;99.90
32749;DHT22;19119;52.474;13.710;2022-11-20T03:25:29;0.30;99.90
32749;DHT22;19119;52.474;13.710;2022-11-20T03:27:55;0.40;99.90
32749;DHT22;19119;52.474;13.710;2022-11-20T03:30:20;0.40;99.90
32749;DHT22;19119;52.474;13.710;2022-11-20T03:32:46;0.40;99.90
32749;DHT22;19119;52.474;13.710;2022-11-20T03:35:11;0.40;99.90
32749;DHT22;19119;52.474;13.710;2022-11-20T03:37:37;0.40;99.90
32749;DHT22;19119;52.474;13.710;2022-11-20T03:40:02;0.50;99.90
32749;DHT22;19119;52.474;13.710;2022-11-20T03:42:28;0.40;99.90
32749;DHT22;19119;52.474;13.710;2022-11-20T03:45:13;0.40;99.90
32749;DHT22;19119;52.474;13.710;2022-11-20T03:47:39;0.30;99.90
32749;DHT22;19119;52.474;13.710;2022-11-20T03:50:04;0.30;99.90
32749;DHT22;19119;52.474;13.710;2022-11-20T03:52:30;0.30;99.90
32749;DHT22;19119;52.474;13.710;2022-11-20T03:54:55;0.30;99.90
32749;DHT22;19119;52.474;13.710;2022-11-20T03:57:21;0.40;99.90
32749;DHT22;19119;52.474;13.710;2022-11-20T03:59:46;0.30;99.90
32749;DHT22;19119;52.474;13.710;2022-11-20T04:02:12;0.20;99.90
32749;DHT22;19119;52.474;13.710;2022-11-20T04:04:37;0.30;99.90
32749;DHT22;19119;52.474;13.710;2022-11-20T04:07:03;0.30;99.90
32749;DHT22;19119;52.474;13.710;2022-11-20T04:09:29;0.30;99.90
32749;DHT22;19119;52.474;13.710;2022-11-20T04:11:54;0.30;99.90
32749;DHT22;19119;52.474;13.710;2022-11-20T04:14:20;0.20;99.90
32749;DHT22;19119;52.474;13.710;2022-11-20T04:16:45;0.10;99.90
32749;DHT22;19119;52.474;13.710;2022-11-20T04:19:12;0.10;99.90
32749;DHT22;19119;52.474;13.710;2022-11-20T04:21:37;0.10;99.90
32749;DHT22;19119;52.474;13.710;2022-11-20T04:24:03;0.10;99.90
32749;DHT22;19119;52.474;13.710;2022-11-20T04:26:29;0.10;99.90
32749;DHT22;19119;52.474;13.710;2022-11-20T04:28:55;0.10;99.90
32749;DHT22;19119;52.474;13.710;2022-11-20T04:31:21;0.10;99.90
32749;DHT22;19119;52.474;13.710;2022-11-20T04:33:47;0.10;99.90
32749;DHT22;19119;52.474;13.710;2022-11-20T04:36:14;0.20;99.90
32749;DHT22;19119;52.474;13.710;2022-11-20T04:38:40;0.20;99.90
32749;DHT22;19119;52.474;13.710;2022-11-20T04:41:06;0.20;99.90
32749;DHT22;19119;52.474;13.710;2022-11-20T04:43:32;0.20;99.90
32749;DHT22;19119;52.474;13.710;2022-11-20T04:45:58;0.10;99.90
32749;DHT22;19119;52.474;13.710;2022-11-20T04:48:24;0.10;99.90
32749;DHT22;19119;52.474;13.710;2022-11-20T04:50:50;0.10;99.90
32749;DHT22;19119;52.474;13.710;2022-11-20T04:53:15;0.10;99.90
32749;DHT22;19119;52.474;13.710;2022-11-20T04:55:40;0.10;99.90
32749;DHT22;19119;52.474;13.710;2022-11-20T04:58:06;0.10;99.90
32749;DHT22;19119;52.474;13.710;2022-11-20T05:00:31;0.10;99.90
32749;DHT22;19119;52.474;13.710;2022-11-20T05:02:57;0.10;99.90
32749;DHT22;19119;52.474;13.710;2022-11-20T05:05:22;0.00;99.90
32749;DHT22;19119;52.474;13.710;2022-11-20T05:07:48;0.00;99.90
32749;DHT22;19119;52.474;13.710;2022-11-20T05:10:13;0.00;99.90
32749;DHT22;19119;52.474;13.710;2022-11-20T05:12:39;0.00;99.90
32749;DHT22;19119;52.474;13.710;2022-11-20T05:15:04;0.10;99.90
32749;DHT22;19119;52.474;13.710;2022-11-20T05:17:31;0.10;99.90
32749;DHT22;19119;52.474;13.710;2022-11-20T05:19:57;0.10;99.90
32749;DHT22;19119;52.474;13.710;2022-11-20T05:22:22;0.00;99.90
32749;DHT22;19119;52.474;13.710;2022-11-20T05:24:48;0.00;99.90
32749;DHT22;19119;52.474;13.710;2022-11-20T05:27:13;0.00;99.90
32749;DHT22;19119;52.474;13.710;2022-11-20T05:29:39;0.00;99.90
32749;DHT22;19119;52.474;13.710;2022-11-20T05:32:04;0.00;99.90
32749;DHT22;19119;52.474;13.710;2022-11-20T05:34:31;0.00;99.90
32749;DHT22;19119;52.474;13.710;2022-11-20T05:36:56;0.10;99.90
32749;DHT22;19119;52.474;13.710;2022-11-20T05:39:22;0.00;99.90
32749;DHT22;19119;52.474;13.710;2022-11-20T05:41:47;0.10;99.90
32749;DHT22;19119;52.474;13.710;2022-11-20T05:44:33;0.10;99.90
32749;DHT22;19119;52.474;13.710;2022-11-20T05:46:58;0.00;99.90
32749;DHT22;19119;52.474;13.710;2022-11-20T05:49:24;0.10;99.90
32749;DHT22;19119;52.474;13.710;2022-11-20T05:51:49;0.10;99.90
32749;DHT22;19119;52.474;13.710;2022-11-20T05:54:14;0.10;99.90
32749;DHT22;19119;52.474;13.710;2022-11-20T05:56:40;0.10;99.90
32749;DHT22;19119;52.474;13.710;2022-11-20T05:59:05;0.00;99.90
32749;DHT22;19119;52.474;13.710;2022-11-20T06:01:31;0.00;99.90
32749;DHT22;19119;52.474;13.710;2022-11-20T06:03:56;-0.10;99.90
32749;DHT22;19119;52.474;13.710;2022-11-20T06:06:22;0.00;99.90
32749;DHT22;19119;52.474;13.710;2022-11-20T06:08:47;0.00;99.90
32749;DHT22;19119;52.474;13.710;2022-11-20T06:11:13;0.00;99.90
32749;DHT22;19119;52.474;13.710;2022-11-20T06:13:39;0.00;99.90
32749;DHT22;19119;52.474;13.710;2022-11-20T06:16:05;0.10;99.90
32749;DHT22;19119;52.474;13.710;2022-11-20T06:18:30;0.00;99.90
32749;DHT22;19119;52.474;13.710;2022-11-20T06:23:28;0.10;99.90
32749;DHT22;19119;52.474;13.710;2022-11-20T06:25:54;0.10;99.90
32749;DHT22;19119;52.474;13.710;2022-11-20T06:28:19;0.10;99.90
32749;DHT22;19119;52.474;13.710;2022-11-20T06:30:45;0.10;99.90
32749;DHT22;19119;52.474;13.710;2022-11-20T06:33:11;0.10;99.90
32749;DHT22;19119;52.474;13.710;2022-11-20T06:35:36;0.10;99.90
32749;DHT22;19119;52.474;13.710;2022-11-20T06:38:02;0.10;99.90
32749;DHT22;19119;52.474;13.710;2022-11-20T06:40:27;0.10;99.90
32749;DHT22;19119;52.474;13.710;2022-11-20T06:42:53;0.10;99.90
32749;DHT22;19119;52.474;13.710;2022-11-20T06:45:18;0.20;99.90
32749;DHT22;19119;52.474;13.710;2022-11-20T06:47:44;0.20;99.90
32749;DHT22;19119;52.474;13.710;2022-11-20T06:50:09;0.10;99.90
32749;DHT22;19119;52.474;13.710;2022-11-20T06:52:35;0.20;99.90
32749;DHT22;19119;52.474;13.710;2022-11-20T06:55:00;0.10;99.90
32749;DHT22;19119;52.474;13.710;2022-11-20T06:57:25;0.10;99.90
32749;DHT22;19119;52.474;13.710;2022-11-20T06:59:51;0.20;99.90
32749;DHT22;19119;52.474;13.710;2022-11-20T07:02:16;0.20;99.90
32749;DHT22;19119;52.474;13.710;2022-11-20T07:04:42;0.20;99.90
32749;DHT22;19119;52.474;13.710;2022-11-20T07:07:08;0.30;99.90
32749;DHT22;19119;52.474;13.710;2022-11-20T07:09:33;0.20;99.90
32749;DHT22;19119;52.474;13.710;2022-11-20T07:11:59;0.20;99.90
32749;DHT22;19119;52.474;13.710;2022-11-20T07:14:24;0.20;99.90
32749;DHT22;19119;52.474;13.710;2022-11-20T07:16:50;0.20;99.90
32749;DHT22;19119;52.474;13.710;2022-11-20T07:19:15;0.30;99.90
32749;DHT22;19119;52.474;13.710;2022-11-20T07:21:41;0.20;99.90
32749;DHT22;19119;52.474;13.710;2022-11-20T07:24:07;0.20;99.90
32749;DHT22;19119;52.474;13.710;2022-11-20T07:26:32;0.30;99.90
32749;DHT22;19119;52.474;13.710;2022-11-20T07:28:58;0.20;99.90
32749;DHT22;19119;52.474;13.710;2022-11-20T07:31:23;0.30;99.90
32749;DHT22;19119;52.474;13.710;2022-11-20T07:33:48;0.30;99.90
32749;DHT22;19119;52.474;13.710;2022-11-20T07:36:14;0.30;99.90
32749;DHT22;19119;52.474;13.710;2022-11-20T07:38:39;0.20;99.90
32749;DHT22;19119;52.474;13.710;2022-11-20T07:41:05;0.30;99.90
32749;DHT22;19119;52.474;13.710;2022-11-20T07:43:30;0.20;99.90
32749;DHT22;19119;52.474;13.710;2022-11-20T07:45:56;0.30;99.90
32749;DHT22;19119;52.474;13.710;2022-11-20T07:48:22;0.10;99.90
32749;DHT22;19119;52.474;13.710;2022-11-20T07:50:48;0.10;99.90
32749;DHT22;19119;52.474;13.710;2022-11-20T07:53:13;0.20;99.90
32749;DHT22;19119;52.474;13.710;2022-11-20T07:55:39;0.20;99.90
32749;DHT22;19119;52.474;13.710;2022-11-20T07:58:04;0.20;99.90
32749;DHT22;19119;52.474;13.710;2022-11-20T08:00:30;0.30;99.90
32749;DHT22;19119;52.474;13.710;2022-11-20T08:02:55;0.30;99.90
32749;DHT22;19119;52.474;13.710;2022-11-20T08:05:21;0.20;99.90
32749;DHT22;19119;52.474;13.710;2022-11-20T08:07:46;0.20;99.90
32749;DHT22;19119;52.474;13.710;2022-11-20T08:10:12;0.20;99.90
32749;DHT22;19119;52.474;13.710;2022-11-20T08:12:47;0.20;99.90
32749;DHT22;19119;52.474;13.710;2022-11-20T08:15:32;0.20;99.90
32749;DHT22;19119;52.474;13.710;2022-11-20T08:18:01;0.30;99.90
32749;DHT22;19119;52.474;13.710;2022-11-20T08:20:26;0.20;99.90
32749;DHT22;19119;52.474;13.710;2022-11-20T08:22:52;0.20;99.90
32749;DHT22;19119;52.474;13.710;2022-11-20T08:25:22;0.30;99.90
32749;DHT22;19119;52.474;13.710;2022-11-20T08:27:47;0.20;99.90
32749;DHT22;19119;52.474;13.710;2022-11-20T08:30:13;0.20;99.90
32749;DHT22;19119;52.474;13.710;2022-11-20T08:32:38;0.20;99.90
32749;DHT22;19119;52.474;13.710;2022-11-20T08:35:04;0.30;99.90
32749;DHT22;19119;52.474;13.710;2022-11-20T08:37:30;0.40;99.90
32749;DHT22;19119;52.474;13.710;2022-11-20T08:39:55;0.30;99.90
32749;DHT22;19119;52.474;13.710;2022-11-20T08:42:22;0.30;99.90
32749;DHT22;19119;52.474;13.710;2022-11-20T08:44:47;0.40;99.90
32749;DHT22;19119;52.474;13.710;2022-11-20T08:47:13;0.40;99.90
32749;DHT22;19119;52.474;13.710;2022-11-20T08:49:38;0.40;99.90
32749;DHT22;19119;52.474;13.710;2022-11-20T08:52:03;0.50;99.90
32749;DHT22;19119;52.474;13.710;2022-11-20T08:54:29;0.50;99.90
32749;DHT22;19119;52.474;13.710;2022-11-20T08:56:54;0.40;99.90
32749;DHT22;19119;52.474;13.710;2022-11-20T08:59:20;0.30;99.90
32749;DHT22;19119;52.474;13.710;2022-11-20T09:01:45;0.40;99.90
32749;DHT22;19119;52.474;13.710;2022-11-20T09:04:11;0.30;99.90
32749;DHT22;19119;52.474;13.710;2022-11-20T09:06:37;0.30;99.90
32749;DHT22;19119;52.474;13.710;2022-11-20T09:09:02;0.30;99.90
32749;DHT22;19119;52.474;13.710;2022-11-20T09:11:28;0.30;99.90
32749;DHT22;19119;52.474;13.710;2022-11-20T09:13:53;0.40;99.90
32749;DHT22;19119;52.474;13.710;2022-11-20T09:16:18;0.40;99.90
32749;DHT22;19119;52.474;13.710;2022-11-20T09:18:44;0.50;99.90
32749;DHT22;19119;52.474;13.710;2022-11-20T09:21:11;0.40;99.90
32749;DHT22;19119;52.474;13.710;2022-11-20T09:23:37;0.40;99.90
32749;DHT22;19119;52.474;13.710;2022-11-20T09:26:10;0.40;99.90
32749;DHT22;19119;52.474;13.710;2022-11-20T09:28:35;0.50;99.90
32749;DHT22;19119;52.474;13.710;2022-11-20T09:31:04;0.40;99.90
32749;DHT22;19119;52.474;13.710;2022-11-20T09:33:30;0.40;99.90
32749;DHT22;19119;52.474;13.710;2022-11-20T09:35:55;0.40;99.90
32749;DHT22;19119;52.474;13.710;2022-11-20T09:38:21;0.30;99.90
32749;DHT22;19119;52.474;13.710;2022-11-20T09:40:50;0.40;99.90
32749;DHT22;19119;52.474;13.710;2022-11-20T09:46:06;0.40;99.90
32749;DHT22;19119;52.474;13.710;2022-11-20T09:48:48;0.40;99.90
32749;DHT22;19119;52.474;13.710;2022-11-20T09:56:40;0.30;99.90
32749;DHT22;19119;52.474;13.710;2022-11-20T09:59:07;0.40;99.90
32749;DHT22;19119;52.474;13.710;2022-11-20T10:01:37;0.30;99.90
32749;DHT22;19119;52.474;13.710;2022-11-20T10:04:16;0.40;99.90
32749;DHT22;19119;52.474;13.710;2022-11-20T10:07:04;0.40;99.90
32749;DHT22;19119;52.474;13.710;2022-11-20T10:09:34;0.30;99.90
32749;DHT22;19119;52.474;13.710;2022-11-20T10:12:15;0.30;99.90
32749;DHT22;19119;52.474;13.710;2022-11-20T10:14:48;0.40;99.90
32749;DHT22;19119;52.474;13.710;2022-11-20T10:20:23;0.60;99.90
32749;DHT22;19119;52.474;13.710;2022-11-20T10:25:22;0.50;99.90
32749;DHT22;19119;52.474;13.710;2022-11-20T10:28:23;0.50;99.90
32749;DHT22;19119;52.474;13.710;2022-11-20T10:30:42;0.50;99.90
32749;DHT22;19119;52.474;13.710;2022-11-20T10:35:38;0.50;99.90
32749;DHT22;19119;52.474;13.710;2022-11-20T10:38:08;0.60;99.90
32749;DHT22;19119;52.474;13.710;2022-11-20T10:40:38;0.70;99.90
32749;DHT22;19119;52.474;13.710;2022-11-20T10:43:10;0.60;99.90
32749;DHT22;19119;52.474;13.710;2022-11-20T10:48:42;0.80;99.90
32749;DHT22;19119;52.474;13.710;2022-11-20T10:53:50;0.70;99.90
32749;DHT22;19119;52.474;13.710;2022-11-20T10:56:22;0.70;99.90
32749;DHT22;19119;52.474;13.710;2022-11-20T11:01:24;0.90;99.90
32749;DHT22;19119;52.474;13.710;2022-11-20T11:03:52;0.90;99.90
32749;DHT22;19119;52.474;13.710;2022-11-20T11:06:21;0.80;99.90
32749;DHT22;19119;52.474;13.710;2022-11-20T11:08:49;0.80;99.90
32749;DHT22;19119;52.474;13.710;2022-11-20T11:11:22;0.80;99.90
32749;DHT22;19119;52.474;13.710;2022-11-20T11:13:48;0.90;99.90
32749;DHT22;19119;52.474;13.710;2022-11-20T11:16:21;0.90;99.90
32749;DHT22;19119;52.474;13.710;2022-11-20T11:18:47;1.00;99.90
32749;DHT22;19119;52.474;13.710;2022-11-20T11:21:12;1.20;99.90
32749;DHT22;19119;52.474;13.710;2022-11-20T11:23:42;1.20;99.90
32749;DHT22;19119;52.474;13.710;2022-11-20T11:26:21;1.30;99.90
32749;DHT22;19119;52.474;13.710;2022-11-20T11:28:56;1.40;99.90
32749;DHT22;19119;52.474;13.710;2022-11-20T11:31:26;1.30;99.90
32749;DHT22;19119;52.474;13.710;2022-11-20T11:33:51;1.30;99.90
32749;DHT22;19119;52.474;13.710;2022-11-20T11:36:18;1.20;99.90
32749;DHT22;19119;52.474;13.710;2022-11-20T11:38:44;1.30;99.90
32749;DHT22;19119;52.474;13.710;2022-11-20T11:41:15;1.50;99.90
32749;DHT22;19119;52.474;13.710;2022-11-20T11:43:48;1.50;99.90
32749;DHT22;19119;52.474;13.710;2022-11-20T11:46:33;1.60;99.90
32749;DHT22;19119;52.474;13.710;2022-11-20T11:51:37;1.40;99.90
32749;DHT22;19119;52.474;13.710;2022-11-20T11:54:05;1.40;99.90
32749;DHT22;19119;52.474;13.710;2022-11-20T11:56:34;1.40;99.90
32749;DHT22;19119;52.474;13.710;2022-11-20T11:59:00;1.40;99.90
32749;DHT22;19119;52.474;13.710;2022-11-20T12:01:43;1.40;99.90
32749;DHT22;19119;52.474;13.710;2022-11-20T12:06:58;1.50;99.90
32749;DHT22;19119;52.474;13.710;2022-11-20T12:09:24;1.60;99.90
32749;DHT22;19119;52.474;13.710;2022-11-20T12:12:10;1.60;99.90
32749;DHT22;19119;52.474;13.710;2022-11-20T12:14:38;1.60;99.90
32749;DHT22;19119;52.474;13.710;2022-11-20T12:17:07;1.60;99.90
32749;DHT22;19119;52.474;13.710;2022-11-20T12:19:35;1.70;99.90
32749;DHT22;19119;52.474;13.710;2022-11-20T12:22:13;1.50;99.90
32749;DHT22;19119;52.474;13.710;2022-11-20T12:24:46;1.50;99.90
32749;DHT22;19119;52.474;13.710;2022-11-20T12:27:34;1.30;99.90
32749;DHT22;19119;52.474;13.710;2022-11-20T12:30:04;1.40;99.90
32749;DHT22;19119;52.474;13.710;2022-11-20T12:38:04;1.50;99.90
32749;DHT22;19119;52.474;13.710;2022-11-20T12:40:42;1.40;99.90
32749;DHT22;19119;52.474;13.710;2022-11-20T12:43:19;1.30;99.90
32749;DHT22;19119;52.474;13.710;2022-11-20T12:46:08;1.30;99.90
32749;DHT22;19119;52.474;13.710;2022-11-20T12:51:27;1.40;99.90
32749;DHT22;19119;52.474;13.710;2022-11-20T13:01:55;1.50;99.90
32749;DHT22;19119;52.474;13.710;2022-11-20T13:07:12;1.50;99.90
32749;DHT22;19119;52.474;13.710;2022-11-20T13:09:40;1.50;99.90
32749;DHT22;19119;52.474;13.710;2022-11-20T13:17:00;1.50;99.90
32749;DHT22;19119;52.474;13.710;2022-11-20T13:19:29;1.50;99.90
32749;DHT22;19119;52.474;13.710;2022-11-20T13:21:55;1.40;99.90
32749;DHT22;19119;52.474;13.710;2022-11-20T13:27:33;1.50;99.90
32749;DHT22;19119;52.474;13.710;2022-11-20T13:29:34;1.40;99.90
32749;DHT22;19119;52.474;13.710;2022-11-20T13:32:04;1.40;99.90
32749;DHT22;19119;52.474;13.710;2022-11-20T13:34:30;1.20;99.90
32749;DHT22;19119;52.474;13.710;2022-11-20T13:36:56;1.20;99.90
32749;DHT22;19119;52.474;13.710;2022-11-20T13:40:04;1.10;99.90
32749;DHT22;19119;52.474;13.710;2022-11-20T13:44:42;1.10;99.90
32749;DHT22;19119;52.474;13.710;2022-11-20T13:47:22;1.20;99.90
32749;DHT22;19119;52.474;13.710;2022-11-20T13:49:48;1.20;99.90
32749;DHT22;19119;52.474;13.710;2022-11-20T14:00:13;1.30;99.90
32749;DHT22;19119;52.474;13.710;2022-11-20T14:02:39;1.30;99.90
32749;DHT22;19119;52.474;13.710;2022-11-20T14:05:05;1.20;99.90
32749;DHT22;19119;52.474;13.710;2022-11-20T14:07:39;1.20;99.90
32749;DHT22;19119;52.474;13.710;2022-11-20T14:10:05;1.30;99.90
32749;DHT22;19119;52.474;13.710;2022-11-20T14:12:32;1.30;99.90
32749;DHT22;19119;52.474;13.710;2022-11-20T14:14:58;1.30;99.90
32749;DHT22;19119;52.474;13.710;2022-11-20T14:17:29;1.30;99.90
32749;DHT22;19119;52.474;13.710;2022-11-20T14:19:55;1.30;99.90
32749;DHT22;19119;52.474;13.710;2022-11-20T14:22:23;1.30;99.90
32749;DHT22;19119;52.474;13.710;2022-11-20T14:25:00;1.20;99.90
32749;DHT22;19119;52.474;13.710;2022-11-20T14:27:26;1.20;99.90
32749;DHT22;19119;52.474;13.710;2022-11-20T14:29:51;1.20;99.90
32749;DHT22;19119;52.474;13.710;2022-11-20T14:32:17;1.30;99.90
32749;DHT22;19119;52.474;13.710;2022-11-20T14:34:44;1.30;99.90
32749;DHT22;19119;52.474;13.710;2022-11-20T14:37:11;1.40;99.90
32749;DHT22;19119;52.474;13.710;2022-11-20T14:39:40;1.40;99.90
32749;DHT22;19119;52.474;13.710;2022-11-20T14:42:16;1.30;99.90
32749;DHT22;19119;52.474;13.710;2022-11-20T14:44:42;1.40;99.90
32749;DHT22;19119;52.474;13.710;2022-11-20T14:47:08;1.30;99.90
32749;DHT22;19119;52.474;13.710;2022-11-20T14:49:35;1.20;99.90
32749;DHT22;19119;52.474;13.710;2022-11-20T14:52:15;1.20;99.90
32749;DHT22;19119;52.474;13.710;2022-11-20T14:54:44;1.30;99.90
32749;DHT22;19119;52.474;13.710;2022-11-20T14:57:19;1.30;99.90
32749;DHT22;19119;52.474;13.710;2022-11-20T14:59:45;1.30;99.90
32749;DHT22;19119;52.474;13.710;2022-11-20T15:02:11;1.30;99.90
32749;DHT22;19119;52.474;13.710;2022-11-20T15:07:25;1.20;99.90
32749;DHT22;19119;52.474;13.710;2022-11-20T15:12:25;1.40;99.90
32749;DHT22;19119;52.474;13.710;2022-11-20T15:14:50;1.30;99.90
32749;DHT22;19119;52.474;13.710;2022-11-20T15:17:16;1.30;99.90
32749;DHT22;19119;52.474;13.710;2022-11-20T15:19:41;1.40;99.90
32749;DHT22;19119;52.474;13.710;2022-11-20T15:22:09;1.40;99.90
32749;DHT22;19119;52.474;13.710;2022-11-20T15:24:37;1.30;99.90
32749;DHT22;19119;52.474;13.710;2022-11-20T15:27:03;1.40;99.90
32749;DHT22;19119;52.474;13.710;2022-11-20T15:29:28;1.40;99.90
32749;DHT22;19119;52.474;13.710;2022-11-20T15:31:54;1.40;99.90
32749;DHT22;19119;52.474;13.710;2022-11-20T15:34:19;1.40;99.90
32749;DHT22;19119;52.474;13.710;2022-11-20T15:36:45;1.40;99.90
32749;DHT22;19119;52.474;13.710;2022-11-20T15:39:10;1.40;99.90
32749;DHT22;19119;52.474;13.710;2022-11-20T15:41:36;1.50;99.90
32749;DHT22;19119;52.474;13.710;2022-11-20T15:44:02;1.50;99.90
32749;DHT22;19119;52.474;13.710;2022-11-20T15:46:29;1.40;99.90
32749;DHT22;19119;52.474;13.710;2022-11-20T15:48:56;1.40;99.90
32749;DHT22;19119;52.474;13.710;2022-11-20T15:51:34;1.40;99.90
32749;DHT22;19119;52.474;13.710;2022-11-20T15:54:00;1.40;99.90
32749;DHT22;19119;52.474;13.710;2022-11-20T15:56:27;1.40;99.90
32749;DHT22;19119;52.474;13.710;2022-11-20T15:58:52;1.50;99.90
32749;DHT22;19119;52.474;13.710;2022-11-20T16:01:19;1.50;99.90
32749;DHT22;19119;52.474;13.710;2022-11-20T16:03:45;1.50;99.90
32749;DHT22;19119;52.474;13.710;2022-11-20T16:06:10;1.50;99.90
32749;DHT22;19119;52.474;13.710;2022-11-20T16:08:36;1.50;99.90
32749;DHT22;19119;52.474;13.710;2022-11-20T16:11:01;1.40;99.90
32749;DHT22;19119;52.474;13.710;2022-11-20T16:13:27;1.60;99.90
32749;DHT22;19119;52.474;13.710;2022-11-20T16:16:33;1.60;99.90
32749;DHT22;19119;52.474;13.710;2022-11-20T16:18:57;1.60;99.90
32749;DHT22;19119;52.474;13.710;2022-11-20T16:21:23;1.60;99.90
32749;DHT22;19119;52.474;13.710;2022-11-20T16:24:01;1.60;99.90
32749;DHT22;19119;52.474;13.710;2022-11-20T16:26:27;1.60;99.90
32749;DHT22;19119;52.474;13.710;2022-11-20T16:28:53;1.50;99.90
32749;DHT22;19119;52.474;13.710;2022-11-20T16:31:19;1.50;99.90
32749;DHT22;19119;52.474;13.710;2022-11-20T16:33:51;1.60;99.90
32749;DHT22;19119;52.474;13.710;2022-11-20T16:36:17;1.60;99.90
32749;DHT22;19119;52.474;13.710;2022-11-20T16:38:42;1.50;99.90
32749;DHT22;19119;52.474;13.710;2022-11-20T16:41:08;1.40;99.90
32749;DHT22;19119;52.474;13.710;2022-11-20T16:43:52;1.30;99.90
32749;DHT22;19119;52.474;13.710;2022-11-20T16:46:19;1.30;99.90
32749;DHT22;19119;52.474;13.710;2022-11-20T16:48:51;1.20;99.90
32749;DHT22;19119;52.474;13.710;2022-11-20T16:51:17;1.20;99.90